Terminal Aerodrome Forecast
Issued by NWS

Home | Current Version | Previous Version | Text Only | Print | Product List | Glossary On
Versions: 1 2 3 4 5 6 7 8 9 10 11 12 13
000
FTUS46 KSGX 290520
TAFONT
TAF
KONT 290520Z 2906/3012 VRB04KT P6SM SCT250
     FM292100 25012KT P6SM SCT250
     FM300500 VRB05KT P6SM SKC=

USA.gov is the U.S. government's official web portal to all federal, state and local government web resources and services.